Porto Amazonas, Brazil
Current Conditions -  °F | °C
As of 8:00 AM on Wednesday 26 Nov 2014 (Local Time) from SBBI Reporting Station
Broken Clouds Broken Clouds  
Wind Chill: 66°   Ceiling: 1000
Heat Index: 66°   Visibility: 6mi
Dew Point: 64°   Wind: 2mph
Humidity: 94%   Direction: 290°WNW
Pressure: 29.88"   Gusts: NA
Location:  25.55°S, 49.9°W
Report Text: SBBI 261000Z 29002KT 9999 SCT003 BKN010 BKN070 19/18 Q1012
Loading
Personal Weather Stations






























Interactive Weather Map New forecast layout! Learn more

10-Day Weather Forecast

Advertisements
Track Severe Weather on mobile